首页
METAR-TAF:

METAR-TAF

机场 :

Pocono Mountains Municipal Airport

Mount Pocono, 宾夕法尼亚州, 美国

纬度: 41-08-20N, 经度: 075-23-46W, 海拔: 584米

当前天气观测

该预报发布于9分钟前的05:53 UTC
风速12节,风向西北
温度 -2°C
湿度 93%
气压 1017 hPa
能見度: 3.2公里
少量云层高于800英尺
阴天层高于1400英尺
小雪, 轻雾

METAR: KMPO 110553Z AUTO 31012KT 2SM -SN BR FEW008 OVC014 M02/M03 A3004 RMK AO2 SLP187 P0001 60012 T10221033 10033 21022 53005

时间: 01:02 (06:02 UTC)


TAF: 丢失

超过4000个机场的气象观测和天气预报(METAR&TAF报告)。

可查询的气象台以黄色和红色小点在地图上表示。

将鼠标移到小点上方,可查看气象台名称。

然后点击查看天气观测和预报。

如需切换地图:点击带黑十字的绿色按钮放大地图;点击带横线的绿色按钮缩小地图;或者点击绿色箭头查看邻近地区的地图。


METAR-TAF: